Time;durP1;ratioP1;P1;durP2;ratioP2;P2;SDS_P1;SDS_P2;PMS_P1;PMS_P2;Temp;Humidity;BMP_temperature;BMP_pressure;BME280_temperature;BME280_humidity;BME280_pressure;Samples;Min_cycle;Max_cycle;Signal;HPM_P1;HPM_P2
2022/01/08 00:00:26;;;;;;;9.50;2.60;;;3.50;99.90;;;;;;5034952;28;20045;-83
2022/01/08 00:02:52;;;;;;;6.53;2.15;;;3.60;99.90;;;;;;5034982;28;20053;-83
2022/01/08 00:05:19;;;;;;;6.47;1.98;;;3.50;99.90;;;;;;5018820;28;20100;-83
2022/01/08 00:07:45;;;;;;;6.97;1.90;;;3.50;99.90;;;;;;5018369;28;20058;-83
2022/01/08 00:10:11;;;;;;;11.98;2.30;;;3.50;99.90;;;;;;5034833;28;20078;-82
2022/01/08 00:12:37;;;;;;;8.32;2.08;;;3.50;99.90;;;;;;5034433;28;20047;-82
2022/01/08 00:15:05;;;;;;;10.65;2.10;;;3.50;99.90;;;;;;5034417;28;20056;-82
2022/01/08 00:17:31;;;;;;;10.55;2.30;;;3.40;99.90;;;;;;5034983;28;20053;-82
2022/01/08 00:19:57;;;;;;;6.85;2.03;;;3.30;99.90;;;;;;5034368;28;20129;-82
2022/01/08 00:22:22;;;;;;;8.30;2.60;;;3.30;99.90;;;;;;5018393;28;20037;-82
2022/01/08 00:24:52;;;;;;;7.57;2.50;;;3.30;99.90;;;;;;5001687;28;20041;-82
2022/01/08 00:27:19;;;;;;;12.32;2.30;;;3.30;99.90;;;;;;5034123;28;20045;-82
2022/01/08 00:29:45;;;;;;;10.27;2.40;;;3.20;99.90;;;;;;5019049;28;20081;-82
2022/01/08 00:32:10;;;;;;;4.72;2.03;;;3.20;99.90;;;;;;5017170;28;20527;-83
2022/01/08 00:34:36;;;;;;;7.50;1.75;;;3.20;99.90;;;;;;5034309;28;20049;-82
2022/01/08 00:37:02;;;;;;;5.80;2.10;;;3.20;99.90;;;;;;5034885;28;20132;-83
2022/01/08 00:39:28;;;;;;;12.05;2.13;;;3.40;99.90;;;;;;5034144;28;20048;-82
2022/01/08 00:41:53;;;;;;;6.57;1.83;;;3.50;99.90;;;;;;5034193;28;20045;-83
2022/01/08 00:44:19;;;;;;;13.15;2.55;;;3.50;99.90;;;;;;5017677;28;20140;-82
2022/01/08 00:46:45;;;;;;;8.30;2.33;;;3.50;99.90;;;;;;5017296;28;20045;-83
2022/01/08 00:49:11;;;;;;;6.40;1.88;;;3.60;99.90;;;;;;5018126;28;20076;-83
2022/01/08 00:51:36;;;;;;;9.52;2.38;;;3.60;99.90;;;;;;5033927;28;20045;-82
2022/01/08 00:54:02;;;;;;;11.77;2.38;;;3.60;99.90;;;;;;5034253;28;20111;-82
2022/01/08 00:56:28;;;;;;;14.57;2.47;;;3.60;99.90;;;;;;5033551;28;20140;-82
2022/01/08 00:58:53;;;;;;;6.45;2.55;;;3.70;99.90;;;;;;5017678;28;20045;-82
2022/01/08 01:01:19;;;;;;;7.35;2.85;;;3.70;99.90;;;;;;5017368;28;20045;-82
2022/01/08 01:03:45;;;;;;;13.20;3.90;;;3.70;99.90;;;;;;5017179;28;20052;-82
2022/01/08 01:06:10;;;;;;;8.73;3.00;;;3.70;99.90;;;;;;5033442;28;20052;-82
2022/01/08 01:08:36;;;;;;;13.38;3.95;;;3.70;99.90;;;;;;5016937;28;20140;-82
2022/01/08 01:11:02;;;;;;;12.68;4.18;;;3.80;99.90;;;;;;5033577;28;20053;-82
2022/01/08 01:13:28;;;;;;;9.90;3.60;;;3.60;99.90;;;;;;5033627;28;20049;-82
2022/01/08 01:15:54;;;;;;;18.33;4.45;;;3.60;99.90;;;;;;5017088;28;20064;-82
2022/01/08 01:18:19;;;;;;;10.55;4.38;;;3.50;99.90;;;;;;5033519;28;20049;-82
2022/01/08 01:20:45;;;;;;;15.93;5.00;;;3.40;99.90;;;;;;5033543;28;20068;-82
2022/01/08 01:23:19;;;;;;;13.77;4.57;;;3.50;99.90;;;;;;5033856;28;20195;-82
2022/01/08 01:25:55;;;;;;;12.80;5.05;;;3.50;99.90;;;;;;5033013;28;20124;-82
2022/01/08 01:49:19;;;;;;;14.75;4.93;;;3.30;99.90;;;;;;5033062;28;20644;-83
2022/01/08 01:51:45;;;;;;;13.30;5.57;;;3.30;99.90;;;;;;5032946;28;20132;-83
2022/01/08 01:54:10;;;;;;;16.73;5.43;;;3.40;99.90;;;;;;5032906;28;20037;-82
2022/01/08 01:56:37;;;;;;;17.40;5.68;;;3.40;99.90;;;;;;5032398;28;20048;-82
2022/01/08 01:59:03;;;;;;;12.00;5.03;;;3.20;99.90;;;;;;5016401;28;20045;-83
2022/01/08 02:01:29;;;;;;;16.58;5.90;;;3.40;99.90;;;;;;5032721;28;20481;-83
2022/01/08 02:03:55;;;;;;;17.48;5.13;;;3.30;99.90;;;;;;5032580;28;20045;-82
2022/01/08 02:06:20;;;;;;;18.23;6.20;;;3.20;99.90;;;;;;5032340;28;20051;-83
2022/01/08 02:08:46;;;;;;;16.15;5.45;;;3.20;99.90;;;;;;5032438;28;20053;-82
2022/01/08 02:11:12;;;;;;;15.10;5.90;;;3.30;99.90;;;;;;5032735;28;20101;-82
2022/01/08 02:13:39;;;;;;;17.88;6.05;;;3.20;99.90;;;;;;5033050;28;20107;-82
2022/01/08 02:16:06;;;;;;;18.83;6.60;;;3.10;99.90;;;;;;5032700;28;20424;-83
2022/01/08 02:18:36;;;;;;;15.73;6.78;;;3.20;99.90;;;;;;5032379;28;20515;-83
2022/01/08 02:21:03;;;;;;;15.75;6.88;;;3.20;99.90;;;;;;5032613;28;20053;-83
2022/01/08 02:23:30;;;;;;;24.00;8.50;;;3.20;99.90;;;;;;5032842;28;20389;-83
2022/01/08 02:26:04;;;;;;;25.02;7.65;;;3.20;99.90;;;;;;5031940;28;20128;-83
2022/01/08 02:28:30;;;;;;;24.58;7.30;;;3.10;99.90;;;;;;5016146;28;20042;-83
2022/01/08 02:30:56;;;;;;;16.75;6.85;;;3.10;99.90;;;;;;5032572;28;20056;-83
2022/01/08 02:33:26;;;;;;;26.73;7.53;;;3.10;99.90;;;;;;5015733;28;20468;-83
2022/01/08 02:35:53;;;;;;;15.00;5.32;;;3.20;99.90;;;;;;5032493;28;20057;-83
2022/01/08 02:38:19;;;;;;;21.75;7.00;;;3.30;99.90;;;;;;5032453;28;20053;-83
2022/01/08 02:41:02;;;;;;;21.42;7.57;;;3.50;99.90;;;;;;5033185;28;20077;-83
2022/01/08 02:43:29;;;;;;;23.25;7.68;;;3.50;99.90;;;;;;5032570;28;20053;-82
2022/01/08 02:45:55;;;;;;;12.25;6.20;;;3.50;99.90;;;;;;5016268;28;20388;-83
2022/01/08 02:48:20;;;;;;;20.40;7.78;;;3.50;99.90;;;;;;5032379;28;20366;-83
2022/01/08 02:50:46;;;;;;;20.10;7.03;;;3.60;99.90;;;;;;5032317;28;20122;-83
2022/01/08 02:53:13;;;;;;;20.02;6.50;;;3.50;99.90;;;;;;5032959;28;20049;-82
2022/01/08 02:55:38;;;;;;;23.42;6.95;;;3.60;99.90;;;;;;5034172;28;20145;-83
2022/01/08 02:58:04;;;;;;;12.60;5.45;;;3.50;99.90;;;;;;5036775;28;20140;-82
2022/01/08 03:00:30;;;;;;;18.85;6.18;;;3.60;99.90;;;;;;5036141;28;20045;-83
2022/01/08 03:02:56;;;;;;;12.05;4.43;;;3.70;99.90;;;;;;5036084;28;20041;-83
2022/01/08 03:05:21;;;;;;;17.38;5.80;;;3.60;99.90;;;;;;5036069;28;20083;-83
2022/01/08 03:07:49;;;;;;;12.05;4.85;;;3.70;99.90;;;;;;5018956;28;20053;-83
2022/01/08 03:10:16;;;;;;;15.15;4.10;;;3.70;99.90;;;;;;5035831;28;20480;-82
2022/01/08 03:12:42;;;;;;;17.15;5.18;;;3.80;99.90;;;;;;5036193;28;20041;-82
2022/01/08 03:15:17;;;;;;;7.70;3.95;;;3.90;99.90;;;;;;5035886;28;20060;-82
2022/01/08 03:17:43;;;;;;;13.35;4.75;;;3.80;99.90;;;;;;5035868;28;20049;-82
2022/01/08 03:20:12;;;;;;;8.57;3.40;;;3.90;99.90;;;;;;5035836;28;20050;-82
2022/01/08 03:22:40;;;;;;;11.25;3.97;;;3.90;99.90;;;;;;5035813;28;20451;-82
2022/01/08 03:25:07;;;;;;;9.52;3.58;;;3.90;99.90;;;;;;5035468;28;20373;-82
2022/01/08 03:27:33;;;;;;;7.18;2.80;;;3.90;99.90;;;;;;5018752;28;20373;-83
2022/01/08 03:30:00;;;;;;;14.07;3.33;;;3.90;99.90;;;;;;5019383;28;20136;-82
2022/01/08 03:32:26;;;;;;;13.27;3.90;;;3.90;99.90;;;;;;5035611;28;20049;-82
2022/01/08 03:34:52;;;;;;;7.50;2.60;;;3.90;99.90;;;;;;5035483;28;20103;-83
2022/01/08 03:37:18;;;;;;;9.43;2.80;;;3.80;99.90;;;;;;5018955;28;20096;-82
2022/01/08 03:39:44;;;;;;;18.90;2.90;;;3.80;99.90;;;;;;5035340;28;20152;-82
2022/01/08 03:42:10;;;;;;;11.30;3.88;;;3.80;99.90;;;;;;5018972;28;20053;-82
2022/01/08 03:44:35;;;;;;;14.52;4.10;;;3.70;99.90;;;;;;5035224;28;20072;-82
2022/01/08 03:47:23;;;;;;;8.38;3.15;;;3.50;99.90;;;;;;5035261;28;20455;-82
2022/01/08 03:49:47;;;;;;;17.43;4.50;;;3.50;99.90;;;;;;5034850;28;20061;-82
2022/01/08 03:52:13;;;;;;;10.20;4.05;;;3.50;99.90;;;;;;5035156;28;20057;-82
2022/01/08 03:54:40;;;;;;;17.98;5.13;;;3.30;99.90;;;;;;5035117;28;20053;-82
2022/01/08 03:57:05;;;;;;;15.60;5.13;;;3.20;99.90;;;;;;5034752;28;20045;-82
2022/01/08 03:59:31;;;;;;;17.65;5.07;;;3.10;99.90;;;;;;5034716;28;20519;-82
2022/01/08 04:01:57;;;;;;;15.73;4.45;;;3.10;99.90;;;;;;5034708;28;20042;-82
2022/01/08 04:04:23;;;;;;;20.17;4.95;;;3.00;99.90;;;;;;5034972;28;20042;-82
2022/01/08 04:06:48;;;;;;;15.57;4.70;;;3.00;99.90;;;;;;5017516;28;20397;-82
2022/01/08 04:09:14;;;;;;;14.57;5.20;;;2.90;99.90;;;;;;5034238;28;20489;-82
2022/01/08 04:11:40;;;;;;;11.15;4.75;;;2.90;99.90;;;;;;5034784;28;20056;-82
2022/01/08 04:14:06;;;;;;;12.05;3.97;;;2.80;99.90;;;;;;5034775;28;20050;-82
2022/01/08 04:16:35;;;;;;;11.93;3.42;;;2.80;99.90;;;;;;5035262;28;20045;-82
2022/01/08 04:19:01;;;;;;;14.80;3.55;;;2.90;99.90;;;;;;5018622;28;20041;-82
2022/01/08 04:23:58;;;;;;;15.48;3.70;;;3.10;99.90;;;;;;5034593;28;20050;-82
2022/01/08 04:26:25;;;;;;;10.57;3.58;;;3.00;99.90;;;;;;5033784;28;20049;-82
2022/01/08 04:28:52;;;;;;;10.30;3.28;;;2.90;99.90;;;;;;5034676;28;20049;-82
2022/01/08 04:31:19;;;;;;;7.82;3.47;;;2.90;99.90;;;;;;5034601;28;20053;-82
2022/01/08 04:33:44;;;;;;;10.23;3.13;;;2.80;99.90;;;;;;5034542;28;20141;-82
2022/01/08 04:36:10;;;;;;;9.68;3.45;;;2.80;99.90;;;;;;5034419;28;20460;-82
2022/01/08 04:38:36;;;;;;;13.90;3.65;;;2.80;99.90;;;;;;5034308;28;20392;-81
2022/01/08 04:41:01;;;;;;;10.88;3.38;;;2.90;99.90;;;;;;5034649;28;20045;-82
2022/01/08 04:43:28;;;;;;;18.02;3.88;;;2.80;99.90;;;;;;5017784;28;20049;-82
2022/01/08 04:45:54;;;;;;;13.13;2.95;;;2.80;99.90;;;;;;5033563;28;20045;-82
2022/01/08 04:48:20;;;;;;;8.80;3.28;;;2.80;99.90;;;;;;5017715;28;20091;-81
2022/01/08 04:50:46;;;;;;;13.15;3.92;;;2.80;99.90;;;;;;5034021;28;20053;-81
2022/01/08 04:53:12;;;;;;;19.92;3.83;;;2.80;99.90;;;;;;5034163;28;20084;-81
2022/01/08 04:55:38;;;;;;;11.70;3.47;;;2.90;99.90;;;;;;5034068;28;20554;-82
2022/01/08 04:58:05;;;;;;;13.68;3.92;;;3.00;99.90;;;;;;5033514;28;20045;-82
2022/01/08 05:00:32;;;;;;;14.65;3.38;;;3.00;99.90;;;;;;5033902;28;20056;-82
2022/01/08 05:02:58;;;;;;;17.42;4.05;;;3.10;99.90;;;;;;5017041;28;20096;-81
2022/01/08 05:05:24;;;;;;;10.88;3.55;;;3.00;99.90;;;;;;5033642;28;20124;-82
2022/01/08 05:07:50;;;;;;;18.27;4.00;;;3.00;99.90;;;;;;5033374;28;20076;-82
2022/01/08 05:10:16;;;;;;;14.57;3.60;;;3.10;99.90;;;;;;5017328;28;20045;-81
2022/01/08 05:12:41;;;;;;;17.27;3.58;;;3.00;99.90;;;;;;5033661;28;20397;-82
2022/01/08 05:15:07;;;;;;;17.05;3.67;;;3.00;99.90;;;;;;5033643;28;20508;-82
2022/01/08 05:17:38;;;;;;;11.07;3.88;;;3.00;99.90;;;;;;5033416;28;20042;-82
2022/01/08 05:20:07;;;;;;;17.00;3.75;;;3.00;99.90;;;;;;5033275;28;20126;-82
2022/01/08 05:23:06;;;;;;;12.30;3.72;;;3.00;99.90;;;;;;5033233;28;20049;-82
2022/01/08 05:25:27;;;;;;;12.20;4.00;;;3.00;99.90;;;;;;5031214;28;20053;-81
2022/01/08 05:27:53;;;;;;;13.75;3.88;;;3.10;99.90;;;;;;5032858;28;20191;-82
2022/01/08 05:30:21;;;;;;;17.00;4.50;;;3.20;99.90;;;;;;5033349;28;20085;-82
2022/01/08 05:32:48;;;;;;;16.20;3.95;;;3.30;99.90;;;;;;5033301;28;20059;-82
2022/01/08 05:35:14;;;;;;;10.90;3.67;;;3.30;99.90;;;;;;5032983;28;20515;-81
2022/01/08 05:37:40;;;;;;;8.35;3.08;;;3.30;99.90;;;;;;5033249;28;20132;-82
2022/01/08 05:40:07;;;;;;;12.57;3.60;;;3.30;99.90;;;;;;5032883;28;20037;-82
2022/01/08 05:42:32;;;;;;;12.35;3.58;;;3.30;99.90;;;;;;5033392;28;20041;-82
2022/01/08 05:44:58;;;;;;;11.77;3.05;;;3.30;99.90;;;;;;5033209;28;20370;-82
2022/01/08 05:47:27;;;;;;;9.50;2.88;;;3.40;99.90;;;;;;5016653;28;20049;-81
2022/01/08 05:49:53;;;;;;;8.80;2.83;;;3.20;99.90;;;;;;5016576;28;20092;-81
2022/01/08 05:52:18;;;;;;;13.13;3.13;;;3.20;99.90;;;;;;5033125;28;20084;-82
2022/01/08 05:54:44;;;;;;;9.00;3.45;;;3.20;99.90;;;;;;4999940;28;20092;-81
2022/01/08 05:57:10;;;;;;;16.00;3.42;;;3.30;99.90;;;;;;5031897;28;20064;-82
2022/01/08 05:59:36;;;;;;;12.32;3.47;;;3.30;99.90;;;;;;5032563;28;20086;-82
2022/01/08 06:02:02;;;;;;;10.80;3.53;;;3.30;99.90;;;;;;5032869;28;20110;-82
2022/01/08 06:04:28;;;;;;;14.60;4.35;;;3.20;99.90;;;;;;5032749;28;20049;-82
2022/01/08 06:06:53;;;;;;;10.13;4.32;;;3.30;99.90;;;;;;5032809;28;20092;-82
2022/01/08 06:09:19;;;;;;;13.77;4.28;;;3.20;99.90;;;;;;5016009;28;20485;-81
2022/01/08 06:11:45;;;;;;;15.82;4.75;;;3.20;99.90;;;;;;5032958;28;20050;-81
2022/01/08 06:14:10;;;;;;;14.98;3.92;;;3.20;99.90;;;;;;5032365;28;20041;-81
2022/01/08 06:16:38;;;;;;;14.40;4.80;;;3.20;99.90;;;;;;5032774;28;20048;-82
2022/01/08 06:19:09;;;;;;;19.25;4.90;;;3.30;99.90;;;;;;5032801;28;20132;-81
2022/01/08 06:21:36;;;;;;;11.75;4.28;;;3.60;99.90;;;;;;5032667;28;20080;-82
2022/01/08 06:24:02;;;;;;;9.77;4.53;;;3.50;99.90;;;;;;5016363;28;20126;-82
2022/01/08 06:26:28;;;;;;;13.27;4.40;;;3.50;99.90;;;;;;5015509;28;20041;-82
2022/01/08 06:28:54;;;;;;;14.18;4.80;;;3.60;99.90;;;;;;5032657;28;20554;-81
2022/01/08 06:31:21;;;;;;;17.08;5.30;;;3.60;99.90;;;;;;5019380;28;20053;-81
2022/01/08 06:33:47;;;;;;;16.50;5.93;;;3.50;99.90;;;;;;5020195;28;20092;-82
2022/01/08 06:36:13;;;;;;;15.48;5.30;;;3.50;99.90;;;;;;5019928;28;20427;-82
2022/01/08 06:38:40;;;;;;;18.08;5.57;;;3.60;99.90;;;;;;5036813;28;20038;-82
2022/01/08 06:41:06;;;;;;;24.95;6.50;;;3.50;99.90;;;;;;5036539;28;20056;-82
2022/01/08 06:43:31;;;;;;;23.73;6.68;;;3.50;99.90;;;;;;5036472;28;20396;-82
2022/01/08 06:45:57;;;;;;;18.90;7.10;;;3.40;99.90;;;;;;5036551;28;20045;-82
2022/01/08 06:48:23;;;;;;;15.73;6.13;;;3.30;99.90;;;;;;5036254;28;20076;-81
2022/01/08 06:50:48;;;;;;;22.98;7.20;;;3.30;99.90;;;;;;5036290;28;20047;-82
2022/01/08 06:53:14;;;;;;;23.13;7.00;;;3.30;99.90;;;;;;5020054;28;20045;-82
2022/01/08 06:55:40;;;;;;;30.67;7.28;;;3.40;99.90;;;;;;5036220;28;20045;-82
2022/01/08 06:58:06;;;;;;;23.58;7.00;;;3.50;99.90;;;;;;5035731;28;20180;-82
2022/01/08 07:00:31;;;;;;;20.80;6.00;;;3.50;99.90;;;;;;5036299;28;20045;-82
2022/01/08 07:02:59;;;;;;;21.67;6.68;;;3.50;99.90;;;;;;5019696;28;20080;-82
2022/01/08 07:05:25;;;;;;;15.32;5.97;;;3.60;99.90;;;;;;5020572;28;20046;-81
2022/01/08 07:07:51;;;;;;;25.15;7.90;;;3.60;99.90;;;;;;5035997;28;20053;-82
2022/01/08 07:10:16;;;;;;;19.92;6.60;;;3.70;99.90;;;;;;5035321;28;20069;-82
2022/01/08 07:12:42;;;;;;;17.23;6.40;;;3.60;99.90;;;;;;5036427;28;20073;-81
2022/01/08 07:15:08;;;;;;;22.23;7.60;;;3.60;99.90;;;;;;5036308;28;20052;-82
2022/01/08 07:17:34;;;;;;;18.73;6.55;;;3.50;99.90;;;;;;5035871;28;20053;-82
2022/01/08 07:20:00;;;;;;;25.55;7.40;;;3.50;99.90;;;;;;5019221;28;20045;-82
2022/01/08 07:22:25;;;;;;;25.95;8.07;;;3.40;99.90;;;;;;5036123;28;20389;-82
2022/01/08 07:24:51;;;;;;;18.73;7.25;;;3.40;99.90;;;;;;5035670;28;20056;-81
2022/01/08 07:27:17;;;;;;;24.63;7.78;;;3.50;99.90;;;;;;5035154;28;20084;-81
2022/01/08 07:29:42;;;;;;;25.25;6.88;;;3.50;99.90;;;;;;5019544;28;20111;-82
2022/01/08 07:32:08;;;;;;;13.80;5.78;;;3.50;99.90;;;;;;5035539;28;20370;-82
2022/01/08 07:34:34;;;;;;;27.27;8.20;;;3.40;99.90;;;;;;5036052;28;20118;-82
2022/01/08 07:36:59;;;;;;;28.73;8.60;;;3.40;99.90;;;;;;5035487;28;20052;-82
2022/01/08 07:39:25;;;;;;;23.63;8.20;;;3.30;99.90;;;;;;5035064;28;20072;-82
2022/01/08 07:41:51;;;;;;;23.98;7.35;;;3.20;99.90;;;;;;5035221;28;20224;-82
2022/01/08 07:44:16;;;;;;;23.98;8.07;;;3.20;99.90;;;;;;5018844;28;20136;-82
2022/01/08 07:46:42;;;;;;;32.90;7.93;;;3.20;99.90;;;;;;5034998;28;20108;-82
2022/01/08 07:49:09;;;;;;;13.48;5.85;;;3.20;99.90;;;;;;5035215;28;20049;-81
2022/01/08 07:51:35;;;;;;;18.65;6.88;;;3.20;99.90;;;;;;5035528;28;20139;-82
2022/01/08 07:54:00;;;;;;;27.67;7.63;;;3.20;99.90;;;;;;5034864;28;20089;-81
2022/01/08 07:56:26;;;;;;;35.42;8.75;;;3.20;99.90;;;;;;5035249;28;20056;-82
2022/01/08 07:58:52;;;;;;;15.40;5.93;;;3.30;99.90;;;;;;5035535;28;20045;-76
2022/01/08 08:01:17;;;;;;;25.73;7.53;;;3.30;99.90;;;;;;5019090;28;20072;-77
2022/01/08 08:03:43;;;;;;;20.63;5.65;;;3.40;99.90;;;;;;5028967;28;20187;-78
2022/01/08 08:06:10;;;;;;;22.77;5.18;;;3.40;99.90;;;;;;5032280;28;20041;-80
2022/01/08 08:08:36;;;;;;;21.38;5.50;;;3.40;99.90;;;;;;5049600;28;20440;-78
2022/01/08 08:11:08;;;;;;;23.15;6.53;;;3.40;99.90;;;;;;5034036;28;20107;-80
2022/01/08 08:13:33;;;;;;;15.00;4.97;;;3.50;99.90;;;;;;5018256;28;20160;-77
2022/01/08 08:15:59;;;;;;;12.52;4.22;;;3.40;99.90;;;;;;5014837;28;20049;-77
2022/01/08 08:18:26;;;;;;;17.08;4.85;;;3.40;99.90;;;;;;5014607;28;20081;-77
2022/01/08 08:20:52;;;;;;;21.83;5.15;;;3.40;99.90;;;;;;5014929;28;20054;-77
2022/01/08 08:23:18;;;;;;;19.73;5.32;;;3.40;99.90;;;;;;5014592;28;20050;-77
2022/01/08 08:25:43;;;;;;;26.75;5.82;;;3.40;99.90;;;;;;5014659;28;20041;-77
2022/01/08 08:28:09;;;;;;;21.20;5.28;;;3.40;99.90;;;;;;5030877;28;20053;-78
2022/01/08 08:30:35;;;;;;;16.88;4.88;;;3.40;99.90;;;;;;5017141;28;20100;-76
2022/01/08 08:33:02;;;;;;;12.85;4.25;;;3.40;99.90;;;;;;5021025;28;20058;-79
2022/01/08 08:35:28;;;;;;;12.77;4.40;;;3.40;99.90;;;;;;5017024;28;20061;-74
2022/01/08 08:37:54;;;;;;;17.67;5.07;;;3.50;99.90;;;;;;5014263;28;20042;-73
2022/01/08 08:40:19;;;;;;;12.73;3.90;;;3.40;99.90;;;;;;5014602;28;20140;-72
2022/01/08 08:42:45;;;;;;;19.50;4.65;;;3.40;99.90;;;;;;5014490;28;20477;-73
2022/01/08 08:45:11;;;;;;;17.02;5.03;;;3.40;99.90;;;;;;5014307;28;20125;-73
2022/01/08 08:47:39;;;;;;;18.52;4.95;;;3.50;99.90;;;;;;5014391;28;20053;-73
2022/01/08 08:50:07;;;;;;;17.17;5.70;;;3.60;99.90;;;;;;5030830;28;20045;-74
2022/01/08 08:52:33;;;;;;;15.65;5.10;;;3.60;99.90;;;;;;5013723;28;20133;-73
2022/01/08 08:55:00;;;;;;;23.17;5.85;;;3.60;99.90;;;;;;5014272;28;20052;-73
2022/01/08 08:57:25;;;;;;;18.45;5.95;;;3.60;99.90;;;;;;5013434;28;20045;-73
2022/01/08 08:59:51;;;;;;;18.25;5.60;;;3.70;99.90;;;;;;5014064;28;20054;-71
2022/01/08 09:02:17;;;;;;;23.42;6.28;;;3.70;99.90;;;;;;5032350;28;20096;-74
2022/01/08 09:04:43;;;;;;;16.80;5.57;;;3.60;99.90;;;;;;5013953;28;20485;-73
2022/01/08 09:07:09;;;;;;;24.90;6.75;;;3.70;99.90;;;;;;5030483;28;20547;-74
2022/01/08 09:09:35;;;;;;;24.30;6.10;;;3.70;99.90;;;;;;5013962;28;20042;-74
2022/01/08 09:12:02;;;;;;;22.00;6.32;;;3.70;99.90;;;;;;5030298;28;20066;-74
2022/01/08 09:14:28;;;;;;;16.10;5.70;;;3.70;99.90;;;;;;5030115;28;20046;-73
2022/01/08 09:17:00;;;;;;;16.00;5.40;;;3.80;99.90;;;;;;5014788;28;20455;-74
2022/01/08 09:19:25;;;;;;;13.00;4.63;;;3.90;99.90;;;;;;5014111;28;20100;-75
2022/01/08 09:21:52;;;;;;;17.60;5.15;;;3.90;99.90;;;;;;5013461;28;20505;-73
2022/01/08 09:24:19;;;;;;;18.98;5.43;;;3.90;99.90;;;;;;5014313;28;20050;-73
2022/01/08 09:26:45;;;;;;;15.63;4.45;;;4.10;99.90;;;;;;5040686;28;20052;-70
2022/01/08 09:29:11;;;;;;;19.23;4.55;;;4.20;99.90;;;;;;5034039;28;20515;-71
2022/01/08 09:31:38;;;;;;;13.93;4.47;;;4.10;99.90;;;;;;5032851;28;20037;-71
2022/01/08 09:34:04;;;;;;;13.55;3.97;;;4.20;99.90;;;;;;5032913;28;20520;-71
2022/01/08 09:36:31;;;;;;;18.63;4.68;;;4.00;99.90;;;;;;5033358;28;20057;-71
2022/01/08 09:38:57;;;;;;;11.02;3.60;;;4.10;99.90;;;;;;5032969;28;20087;-72
2022/01/08 09:41:23;;;;;;;24.48;4.57;;;4.30;99.90;;;;;;5049501;28;20051;-71
2022/01/08 09:43:49;;;;;;;12.73;3.72;;;4.30;99.90;;;;;;5032741;28;20124;-71
2022/01/08 09:46:15;;;;;;;14.57;3.30;;;4.20;99.90;;;;;;5016174;28;20041;-71
2022/01/08 09:48:45;;;;;;;10.60;3.25;;;4.10;99.90;;;;;;5033993;28;20268;-71
2022/01/08 09:51:10;;;;;;;13.52;3.80;;;4.00;99.90;;;;;;5032555;28;20056;-71
2022/01/08 09:53:36;;;;;;;16.25;3.80;;;3.90;99.90;;;;;;5032830;28;20048;-72
2022/01/08 09:56:04;;;;;;;12.82;3.20;;;4.10;99.90;;;;;;5024295;28;20058;-71
2022/01/08 09:58:29;;;;;;;10.07;3.10;;;4.20;99.90;;;;;;5013699;28;20049;-71
2022/01/08 10:00:55;;;;;;;9.27;3.67;;;4.30;99.90;;;;;;5029332;28;20041;-73
2022/01/08 10:03:24;;;;;;;17.58;4.72;;;4.40;99.90;;;;;;5015568;28;20050;-72
2022/01/08 10:05:59;;;;;;;15.88;3.83;;;4.40;99.90;;;;;;5031357;28;20050;-73
2022/01/08 10:08:28;;;;;;;12.70;3.50;;;4.50;99.90;;;;;;5032596;28;20073;-73
2022/01/08 10:10:55;;;;;;;14.63;3.42;;;4.70;99.90;;;;;;5032317;28;20053;-72
2022/01/08 10:13:23;;;;;;;12.20;3.25;;;4.60;99.90;;;;;;5032321;28;20099;-72
2022/01/08 10:18:36;;;;;;;16.20;3.70;;;4.40;99.90;;;;;;5035222;28;20131;-72
2022/01/08 10:21:20;;;;;;;14.48;4.28;;;4.30;99.90;;;;;;5003766;28;20512;-76
2022/01/08 10:23:49;;;;;;;15.80;3.92;;;4.40;99.90;;;;;;5032514;28;20061;-74
2022/01/08 10:26:18;;;;;;;16.00;4.35;;;4.50;99.90;;;;;;5030991;28;20092;-74
2022/01/08 10:28:51;;;;;;;9.23;4.18;;;4.50;99.90;;;;;;5032372;28;20045;-74
2022/01/08 10:31:27;;;;;;;14.15;4.10;;;4.60;99.90;;;;;;5065788;28;20085;-74
2022/01/08 10:34:16;;;;;;;13.10;3.80;;;4.60;99.90;;;;;;5032554;28;20110;-74
2022/01/08 10:37:03;;;;;;;14.70;4.53;;;4.40;99.90;;;;;;5065656;28;20053;-74
2022/01/08 10:39:33;;;;;;;18.27;4.45;;;4.50;99.90;;;;;;5032254;28;20046;-74
2022/01/08 10:42:02;;;;;;;12.68;4.15;;;4.40;99.90;;;;;;5065693;28;20061;-74
2022/01/08 10:44:31;;;;;;;12.90;3.92;;;4.30;99.90;;;;;;5032519;28;20053;-74
2022/01/08 10:47:02;;;;;;;15.45;4.85;;;4.40;99.90;;;;;;5015124;28;20064;-74
2022/01/08 10:49:41;;;;;;;20.60;4.45;;;4.40;99.90;;;;;;5015671;28;20501;-76
2022/01/08 10:52:19;;;;;;;13.80;4.68;;;4.50;99.90;;;;;;5031968;28;20103;-74
2022/01/08 10:54:46;;;;;;;9.05;3.75;;;4.50;99.90;;;;;;5032317;28;20489;-74
2022/01/08 10:57:14;;;;;;;11.60;4.25;;;4.40;99.90;;;;;;5031210;28;20049;-73
2022/01/08 10:59:41;;;;;;;16.02;4.43;;;4.40;99.90;;;;;;5015403;28;20562;-74
2022/01/08 11:02:16;;;;;;;15.75;5.07;;;4.40;99.90;;;;;;5050304;28;20050;-73
2022/01/08 11:04:52;;;;;;;16.98;4.78;;;4.30;99.90;;;;;;5045325;28;20210;-73
2022/01/08 11:07:30;;;;;;;12.88;3.80;;;4.40;99.90;;;;;;5031857;28;20386;-73
2022/01/08 11:10:03;;;;;;;12.25;4.60;;;4.40;99.90;;;;;;5031988;28;20132;-73
2022/01/08 11:12:42;;;;;;;14.20;4.82;;;4.50;99.90;;;;;;5031453;28;20049;-73
2022/01/08 11:17:49;;;;;;;12.93;4.57;;;4.50;99.90;;;;;;5069221;28;20141;-73
2022/01/08 11:20:17;;;;;;;14.95;4.60;;;4.40;99.90;;;;;;5035553;28;20080;-72
2022/01/08 11:22:48;;;;;;;12.82;4.95;;;4.60;99.90;;;;;;5034887;28;20492;-73
2022/01/08 11:25:24;;;;;;;17.65;5.70;;;4.60;99.90;;;;;;5018797;28;20045;-72
2022/01/08 11:28:10;;;;;;;12.13;5.07;;;4.60;99.90;;;;;;5035301;28;20075;-73
2022/01/08 11:30:38;;;;;;;14.13;5.30;;;4.50;99.90;;;;;;5032098;28;20045;-75
2022/01/08 11:33:16;;;;;;;16.63;5.72;;;4.50;99.90;;;;;;5031742;28;20121;-75
2022/01/08 11:35:44;;;;;;;19.98;5.50;;;4.60;99.90;;;;;;5032390;28;20060;-74
2022/01/08 11:38:12;;;;;;;15.30;5.80;;;4.60;99.90;;;;;;5035179;28;20041;-73
2022/01/08 11:40:43;;;;;;;13.20;4.85;;;4.60;99.90;;;;;;5019220;28;20049;-72
2022/01/08 11:43:12;;;;;;;15.20;5.70;;;4.70;99.90;;;;;;5037932;28;20436;-72
2022/01/08 11:45:43;;;;;;;13.27;5.88;;;4.60;99.90;;;;;;5037875;28;20140;-76
2022/01/08 11:48:11;;;;;;;15.77;5.65;;;4.50;99.90;;;;;;5035067;28;20080;-73
2022/01/08 11:50:38;;;;;;;22.90;6.03;;;4.60;99.90;;;;;;5035359;28;20397;-75
2022/01/08 11:53:29;;;;;;;17.20;6.20;;;4.70;99.90;;;;;;5035071;28;20049;-72
2022/01/08 11:56:04;;;;;;;15.68;5.40;;;4.60;99.90;;;;;;5034949;28;20052;-74
2022/01/08 11:58:33;;;;;;;14.70;5.95;;;4.60;99.90;;;;;;5034706;28;20091;-73
2022/01/08 12:01:14;;;;;;;19.13;6.55;;;4.50;99.90;;;;;;5035115;28;20480;-72
2022/01/08 12:03:49;;;;;;;16.80;7.25;;;4.70;99.90;;;;;;5035134;28;20056;-73
2022/01/08 12:06:27;;;;;;;17.02;6.28;;;4.80;99.90;;;;;;5034839;28;20042;-71
2022/01/08 12:08:57;;;;;;;18.70;6.80;;;4.80;99.90;;;;;;5034698;28;20057;-71
2022/01/08 12:11:24;;;;;;;19.77;5.68;;;4.90;99.90;;;;;;5034606;28;20065;-72
2022/01/08 12:13:50;;;;;;;9.77;5.57;;;4.80;99.90;;;;;;5034960;28;20550;-73
2022/01/08 12:16:36;;;;;;;13.77;6.65;;;4.80;99.90;;;;;;5035043;28;20111;-72
2022/01/08 12:19:07;;;;;;;16.30;6.95;;;4.70;99.90;;;;;;5035184;28;20060;-72
2022/01/08 12:21:39;;;;;;;13.77;6.63;;;4.70;99.90;;;;;;5034765;28;20049;-72
2022/01/08 12:24:26;;;;;;;20.30;7.25;;;4.80;99.90;;;;;;5034979;28;20465;-72
2022/01/08 12:26:57;;;;;;;19.08;7.15;;;4.80;99.90;;;;;;5033307;28;20053;-73
2022/01/08 12:29:37;;;;;;;15.23;7.03;;;4.90;99.90;;;;;;5034318;28;20121;-73
2022/01/08 12:32:32;;;;;;;17.27;8.18;;;4.80;99.90;;;;;;5034622;28;20095;-73
2022/01/08 12:35:16;;;;;;;19.88;8.38;;;4.70;99.90;;;;;;5034831;28;20089;-69
2022/01/08 12:37:47;;;;;;;19.33;8.98;;;4.80;99.90;;;;;;5038971;28;20089;-86
2022/01/08 12:40:32;;;;;;;19.85;9.35;;;4.70;99.90;;;;;;5036544;28;20045;-72
2022/01/08 12:42:59;;;;;;;19.48;9.70;;;4.80;99.90;;;;;;5017801;28;20075;-72
2022/01/08 12:45:33;;;;;;;27.25;11.00;;;4.80;99.90;;;;;;5033916;28;20091;-72
2022/01/08 12:48:04;;;;;;;20.08;9.90;;;4.90;99.90;;;;;;5034372;28;20133;-73
2022/01/08 12:50:37;;;;;;;25.33;10.80;;;4.80;99.90;;;;;;5034166;28;20443;-72
2022/01/08 12:53:06;;;;;;;25.48;11.35;;;4.80;99.90;;;;;;5034121;28;20060;-72
2022/01/08 12:55:42;;;;;;;26.55;10.63;;;4.90;99.90;;;;;;5029118;28;20050;-72
2022/01/08 12:58:24;;;;;;;22.40;11.32;;;4.70;99.90;;;;;;5013810;28;20058;-73
2022/01/08 13:01:00;;;;;;;24.10;12.50;;;4.80;99.90;;;;;;5014217;28;20058;-72
2022/01/08 13:03:33;;;;;;;27.10;12.82;;;4.70;99.90;;;;;;5014067;28;20042;-72
2022/01/08 13:06:01;;;;;;;26.40;13.13;;;4.70;99.90;;;;;;5014607;28;20053;-72
2022/01/08 13:08:28;;;;;;;24.20;12.80;;;4.70;99.90;;;;;;4998338;28;20057;-72
2022/01/08 13:11:02;;;;;;;29.33;12.90;;;4.70;99.90;;;;;;5013939;28;20069;-72
2022/01/08 13:13:42;;;;;;;18.30;10.63;;;4.60;99.90;;;;;;5014660;28;20458;-72
2022/01/08 13:16:25;;;;;;;32.13;12.88;;;4.60;99.90;;;;;;5013988;28;20088;-72
2022/01/08 13:18:57;;;;;;;23.38;12.68;;;4.60;99.90;;;;;;5015170;28;20042;-72
2022/01/08 13:21:30;;;;;;;22.05;12.60;;;4.70;99.90;;;;;;5013675;28;20050;-72